Time;durP1;ratioP1;P1;durP2;ratioP2;P2;SDS_P1;SDS_P2;PMS_P1;PMS_P2;Temp;Humidity;BMP_temperature;BMP_pressure;BME280_temperature;BME280_humidity;BME280_pressure;Samples;Min_cycle;Max_cycle;Signal;HPM_P1;HPM_P2
2023/01/09 00:00:00;;;;;;;1.90;1.60;;;;;;;11.47;56.40;98848.94;693841;28;1359;-84
2023/01/09 00:00:21;;;;;;;2.00;1.50;;;;;;;11.46;56.30;98848.09;685825;28;1054;-83
2023/01/09 00:00:42;;;;;;;2.58;1.67;;;;;;;11.47;56.82;98852.44;685827;28;1000;-83
2023/01/09 00:01:14;;;;;;;2.60;1.70;;;;;;;11.46;56.70;98858.53;685732;28;988;-84
2023/01/09 00:01:40;;;;;;;3.40;1.80;;;;;;;11.46;56.51;98858.53;685817;28;1097;-84
2023/01/09 00:02:01;;;;;;;2.88;1.90;;;;;;;11.45;56.55;98854.19;685830;28;938;-84
2023/01/09 00:02:22;;;;;;;1.95;1.75;;;;;;;11.41;56.56;98854.22;685915;28;907;-83
2023/01/09 00:02:43;;;;;;;2.20;1.90;;;;;;;11.34;56.69;98853.38;683034;28;1049;-84
2023/01/09 00:03:04;;;;;;;2.70;2.10;;;;;;;11.34;56.80;98858.59;683129;28;1072;-84
2023/01/09 00:03:24;;;;;;;2.40;2.08;;;;;;;11.37;57.13;98858.59;685893;28;1218;-84
2023/01/09 00:03:46;;;;;;;2.83;2.00;;;;;;;11.32;57.09;98860.38;691001;28;1615;-84
2023/01/09 00:04:07;;;;;;;2.28;1.88;;;;;;;11.26;57.14;98855.16;688240;28;1258;-84
2023/01/09 00:04:27;;;;;;;2.35;1.85;;;;;;;11.32;57.38;98863.81;680605;29;1136;-84
2023/01/09 00:04:48;;;;;;;1.83;1.73;;;;;;;11.34;57.21;98861.22;680360;29;1097;-84
2023/01/09 00:05:14;;;;;;;2.07;1.87;;;;;;;11.31;57.51;98874.28;685780;28;1180;-84
2023/01/09 00:05:35;;;;;;;1.83;1.73;;;;;;;11.27;57.51;98856.91;683163;29;1084;-83
2023/01/09 00:05:55;;;;;;;2.00;1.80;;;;;;;11.21;57.78;98856.06;688256;28;1274;-83
2023/01/09 00:06:16;;;;;;;2.03;1.70;;;;;;;11.13;57.92;98850.03;688400;28;1347;-83
2023/01/09 00:06:39;;;;;;;2.00;1.70;;;;;;;11.14;58.10;98856.97;685961;28;1086;-83
2023/01/09 00:06:59;;;;;;;1.90;1.63;;;;;;;11.12;58.30;98860.47;680369;29;1267;-84
2023/01/09 00:07:20;;;;;;;2.20;1.65;;;;;;;10.98;58.19;98843.13;683183;28;1966;-84
2023/01/09 00:07:40;;;;;;;2.60;1.60;;;;;;;11.04;58.84;98857.88;685708;28;1219;-84
2023/01/09 00:08:01;;;;;;;2.13;1.60;;;;;;;10.94;59.11;98850.09;687606;28;1420;-84
2023/01/09 00:08:22;;;;;;;1.90;1.80;;;;;;;10.90;59.22;98848.41;688806;28;1091;-84
2023/01/09 00:08:52;;;;;;;1.80;1.70;;;;;;;10.98;59.54;98858.78;685821;28;1112;-83
2023/01/09 00:09:13;;;;;;;2.70;1.80;;;;;;;10.85;59.84;98847.53;688568;28;1201;-83
2023/01/09 00:09:33;;;;;;;3.10;1.65;;;;;;;10.93;60.14;98865.75;685856;28;1208;-84
2023/01/09 00:09:54;;;;;;;3.00;1.60;;;;;;;10.86;60.02;98856.25;683146;29;1296;-83
2023/01/09 00:10:15;;;;;;;2.28;1.52;;;;;;;10.83;60.32;98839.72;683209;28;1216;-84
2023/01/09 00:10:35;;;;;;;1.90;1.60;;;;;;;10.85;60.41;98855.38;688450;28;1201;-84
2023/01/09 00:10:56;;;;;;;1.90;1.70;;;;;;;10.86;60.63;98862.31;685638;28;1117;-82
2023/01/09 00:11:16;;;;;;;1.90;1.80;;;;;;;10.82;60.68;98858.00;685829;28;1299;-83
2023/01/09 00:11:37;;;;;;;1.90;1.80;;;;;;;10.75;60.98;98856.28;683241;29;895;-83
2023/01/09 00:11:57;;;;;;;1.80;1.70;;;;;;;10.74;61.39;98846.72;683170;29;1153;-83
2023/01/09 00:12:19;;;;;;;1.83;1.73;;;;;;;10.71;61.37;98842.38;683130;28;1334;-83
2023/01/09 00:12:40;;;;;;;1.95;1.77;;;;;;;10.72;61.34;98848.44;680571;29;1282;-83
2023/01/09 00:13:00;;;;;;;2.55;1.80;;;;;;;10.69;61.43;98854.53;685676;28;1328;-83
2023/01/09 00:13:22;;;;;;;2.78;1.77;;;;;;;10.69;61.82;98850.19;685995;28;1158;-83
2023/01/09 00:13:42;;;;;;;2.30;1.77;;;;;;;10.70;61.84;98851.09;688433;28;1359;-83
2023/01/09 00:14:04;;;;;;;1.90;1.80;;;;;;;10.63;62.03;98849.38;688463;28;1186;-83
2023/01/09 00:14:24;;;;;;;2.00;1.80;;;;;;;10.76;62.03;98878.88;685873;28;839;-83
2023/01/09 00:14:45;;;;;;;2.00;1.80;;;;;;;10.63;62.20;98854.59;685668;28;1086;-83
2023/01/09 00:15:06;;;;;;;2.08;1.88;;;;;;;10.66;62.47;98863.25;688441;28;1072;-83
2023/01/09 00:15:27;;;;;;;2.10;1.90;;;;;;;10.61;62.24;98844.16;680527;29;1440;-83
2023/01/09 00:15:47;;;;;;;2.10;1.90;;;;;;;10.65;62.62;98858.94;682977;29;1413;-83
2023/01/09 00:16:09;;;;;;;1.97;1.77;;;;;;;10.66;62.89;98851.94;688555;28;1004;-82
2023/01/09 00:16:29;;;;;;;1.80;1.70;;;;;;;10.65;62.79;98863.25;683152;28;1274;-82
2023/01/09 00:16:53;;;;;;;1.80;1.70;;;;;;;10.54;62.89;98850.25;685406;28;1247;-83
2023/01/09 00:17:14;;;;;;;2.00;1.90;;;;;;;10.52;62.78;98846.78;680561;29;1042;-82
2023/01/09 00:17:34;;;;;;;2.00;1.90;;;;;;;10.52;62.93;98852.84;680511;29;1095;-83
2023/01/09 00:17:55;;;;;;;2.25;2.05;;;;;;;10.53;63.05;98856.34;685672;28;1143;-83
2023/01/09 00:18:15;;;;;;;2.80;2.20;;;;;;;10.46;63.29;98847.69;693904;28;1179;-83
2023/01/09 00:18:36;;;;;;;2.53;2.20;;;;;;;10.46;63.38;98846.78;691125;28;1245;-83
2023/01/09 00:18:57;;;;;;;2.35;1.98;;;;;;;10.46;63.69;98855.50;688443;28;1426;-82
2023/01/09 00:19:17;;;;;;;2.17;1.80;;;;;;;10.43;63.85;98852.88;685850;28;1029;-82
2023/01/09 00:19:38;;;;;;;1.98;1.70;;;;;;;10.43;64.08;98852.03;693887;28;1052;-82
2023/01/09 00:19:58;;;;;;;2.38;1.80;;;;;;;10.38;63.72;98858.09;693883;28;1018;-82
2023/01/09 00:20:19;;;;;;;2.20;1.80;;;;;;;10.46;63.80;98860.72;688461;28;1242;-83
2023/01/09 00:20:40;;;;;;;2.30;1.90;;;;;;;10.46;64.46;98867.66;688356;28;949;-82
2023/01/09 00:21:06;;;;;;;1.90;1.80;;;;;;;10.38;64.27;98854.66;685762;28;1310;-83
2023/01/09 00:21:26;;;;;;;3.10;1.80;;;;;;;10.38;64.20;98845.06;683092;29;1351;-83
2023/01/09 00:21:47;;;;;;;3.30;1.80;;;;;;;10.37;64.25;98845.94;688375;28;1348;-83
2023/01/09 00:22:08;;;;;;;3.43;1.80;;;;;;;10.42;64.36;98853.75;688643;28;1060;-82
2023/01/09 00:22:31;;;;;;;2.10;1.90;;;;;;;10.40;64.35;98869.41;688530;28;1166;-82
2023/01/09 00:22:52;;;;;;;1.90;1.75;;;;;;;10.40;64.68;98856.34;685622;28;1106;-82
2023/01/09 00:23:13;;;;;;;1.97;1.80;;;;;;;10.39;64.68;98857.22;683192;28;957;-83
2023/01/09 00:23:34;;;;;;;1.95;1.75;;;;;;;10.35;64.78;98858.13;685766;28;1214;-83
2023/01/09 00:24:05;;;;;;;2.10;1.90;;;;;;;10.36;64.50;98846.81;685824;28;831;-83
2023/01/09 00:24:26;;;;;;;1.92;1.80;;;;;;;10.35;64.68;98860.72;685829;28;955;-83
2023/01/09 00:24:47;;;;;;;1.88;1.70;;;;;;;10.32;64.69;98855.50;690936;28;1464;-82
2023/01/09 00:25:08;;;;;;;1.90;1.70;;;;;;;10.34;64.94;98872.03;685789;28;1490;-83
2023/01/09 00:25:28;;;;;;;2.10;1.90;;;;;;;10.32;64.81;98857.25;685820;28;1226;-84
2023/01/09 00:25:49;;;;;;;2.30;2.00;;;;;;;10.35;64.96;98854.63;685568;28;1184;-84
2023/01/09 00:26:18;;;;;;;3.05;1.90;;;;;;;10.25;64.85;98844.22;685790;28;1224;-83
2023/01/09 00:26:38;;;;;;;2.78;1.70;;;;;;;10.27;64.81;98852.91;677714;28;1233;-83
2023/01/09 00:27:02;;;;;;;3.28;2.00;;;;;;;10.35;65.03;98865.94;685466;28;1281;-83
2023/01/09 00:27:23;;;;;;;3.78;2.10;;;;;;;10.26;65.00;98863.34;688493;28;1910;-83
2023/01/09 00:27:44;;;;;;;3.58;2.20;;;;;;;10.35;65.11;98849.41;688339;28;1049;-83
2023/01/09 00:28:04;;;;;;;2.80;2.00;;;;;;;10.31;64.97;98847.72;685687;28;1189;-84
2023/01/09 00:28:25;;;;;;;2.30;2.10;;;;;;;10.27;65.24;98855.50;680505;29;1138;-83
2023/01/09 00:28:48;;;;;;;2.22;2.00;;;;;;;10.35;65.10;98865.06;685650;28;1186;-83
2023/01/09 00:29:10;;;;;;;2.70;2.20;;;;;;;10.25;65.18;98856.38;685799;28;1226;-83
2023/01/09 00:29:31;;;;;;;3.03;2.00;;;;;;;10.19;65.18;98844.19;688530;28;1176;-83
2023/01/09 00:29:51;;;;;;;3.33;2.10;;;;;;;10.20;65.32;98856.34;685755;28;990;-83
2023/01/09 00:30:12;;;;;;;3.28;1.92;;;;;;;10.26;65.26;98850.31;688482;28;1270;-83
2023/01/09 00:30:33;;;;;;;2.55;1.95;;;;;;;10.18;65.34;98855.50;688384;28;1025;-83
2023/01/09 00:30:58;;;;;;;2.43;1.80;;;;;;;10.20;65.36;98855.50;691186;28;1132;-83
2023/01/09 00:31:19;;;;;;;2.40;1.90;;;;;;;10.17;65.61;98845.06;688401;28;1150;-84
2023/01/09 00:31:39;;;;;;;2.20;1.70;;;;;;;10.21;65.59;98854.63;691166;28;965;-83
2023/01/09 00:32:00;;;;;;;1.80;1.70;;;;;;;10.31;65.68;98848.56;688389;28;1275;-83
2023/01/09 00:32:21;;;;;;;1.70;1.60;;;;;;;10.23;65.52;98850.31;685823;28;1171;-83
2023/01/09 00:32:41;;;;;;;3.22;1.80;;;;;;;10.23;65.75;98850.31;691086;28;1181;-83
2023/01/09 00:33:02;;;;;;;3.20;1.77;;;;;;;10.27;65.49;98858.13;685798;28;1183;-83
2023/01/09 00:33:33;;;;;;;2.85;1.77;;;;;;;10.17;65.57;98845.94;688454;28;1069;-83
2023/01/09 00:34:04;;;;;;;2.20;1.80;;;;;;;10.23;65.84;98855.53;688306;28;1126;-83
2023/01/09 00:34:25;;;;;;;1.95;1.75;;;;;;;10.21;65.59;98863.31;683080;29;1257;-83
2023/01/09 00:34:46;;;;;;;1.83;1.73;;;;;;;10.26;65.46;98872.03;685626;28;1179;-83
2023/01/09 00:35:10;;;;;;;1.80;1.70;;;;;;;10.21;65.65;98844.22;690991;28;1320;-83
2023/01/09 00:35:31;;;;;;;2.10;1.90;;;;;;;10.18;65.78;98842.47;688571;28;820;-83
2023/01/09 00:35:51;;;;;;;2.10;1.90;;;;;;;10.24;65.65;98855.53;691156;28;1016;-84
2023/01/09 00:36:12;;;;;;;2.20;2.00;;;;;;;10.20;65.52;98855.50;685853;28;1235;-83
2023/01/09 00:36:33;;;;;;;2.20;2.00;;;;;;;10.14;65.97;98840.75;685724;28;1541;-83
2023/01/09 00:37:00;;;;;;;2.20;1.98;;;;;;;10.17;66.11;98845.06;690280;28;1337;-83
2023/01/09 00:37:20;;;;;;;1.83;1.73;;;;;;;10.12;66.01;98838.16;685704;28;1290;-83
2023/01/09 00:37:41;;;;;;;1.80;1.70;;;;;;;10.15;65.85;98848.53;685650;28;1090;-83
2023/01/09 00:38:02;;;;;;;1.92;1.70;;;;;;;10.10;66.27;98859.84;680304;29;1094;-83
2023/01/09 00:38:23;;;;;;;2.00;1.60;;;;;;;10.08;65.99;98846.81;688516;28;1254;-83
2023/01/09 00:38:43;;;;;;;1.65;1.55;;;;;;;10.11;66.30;98846.84;688227;28;1251;-83
2023/01/09 00:39:05;;;;;;;1.70;1.60;;;;;;;10.06;66.22;98845.97;691132;28;1158;-83
2023/01/09 00:39:25;;;;;;;1.75;1.65;;;;;;;10.08;66.05;98849.41;685823;28;1280;-83
2023/01/09 00:39:46;;;;;;;2.10;1.77;;;;;;;10.06;66.19;98842.50;682953;29;1309;-82
2023/01/09 00:40:08;;;;;;;1.70;1.60;;;;;;;10.04;66.27;98839.88;688385;28;1196;-83
2023/01/09 00:40:28;;;;;;;1.80;1.60;;;;;;;10.02;66.16;98836.44;691298;28;1257;-83
2023/01/09 00:40:49;;;;;;;1.60;1.50;;;;;;;9.98;66.28;98845.97;690926;28;1160;-83
2023/01/09 00:41:15;;;;;;;1.70;1.60;;;;;;;10.03;66.41;98853.78;693827;28;1161;-83
2023/01/09 00:41:46;;;;;;;1.63;1.52;;;;;;;10.10;66.61;98854.66;688510;28;1347;-83
2023/01/09 00:42:11;;;;;;;1.60;1.50;;;;;;;10.05;66.33;98849.44;687728;28;1948;-82
2023/01/09 00:42:35;;;;;;;1.65;1.55;;;;;;;10.03;66.28;98851.19;688267;28;1200;-83
2023/01/09 00:42:56;;;;;;;1.60;1.50;;;;;;;10.04;66.52;98850.31;688327;28;1300;-83
2023/01/09 00:43:19;;;;;;;2.00;1.80;;;;;;;10.02;66.62;98854.66;688473;28;1079;-82
2023/01/09 00:43:45;;;;;;;2.05;1.73;;;;;;;10.02;66.45;98862.47;688392;28;1338;-82
2023/01/09 00:44:15;;;;;;;2.40;1.80;;;;;;;9.98;66.77;98855.53;685732;28;1161;-83
2023/01/09 00:44:48;;;;;;;1.98;1.70;;;;;;;9.93;66.77;98847.72;680437;29;1038;-83
2023/01/09 00:45:15;;;;;;;1.70;1.60;;;;;;;10.04;66.60;98865.06;685635;28;1006;-83
2023/01/09 00:45:35;;;;;;;1.70;1.60;;;;;;;9.99;66.69;98852.94;685670;28;1345;-82
2023/01/09 00:45:58;;;;;;;1.60;1.50;;;;;;;9.95;66.61;98847.72;685629;28;1066;-82
2023/01/09 00:46:23;;;;;;;1.50;1.40;;;;;;;9.89;66.66;98851.16;685786;28;1316;-83
2023/01/09 00:46:48;;;;;;;1.80;1.60;;;;;;;9.96;66.67;98862.47;687887;28;1280;-83
2023/01/09 00:47:17;;;;;;;1.70;1.60;;;;;;;9.95;66.58;98843.34;688424;28;1954;-83
2023/01/09 00:47:41;;;;;;;1.60;1.50;;;;;;;9.96;66.45;98842.47;688403;28;1298;-82
2023/01/09 00:48:07;;;;;;;1.50;1.40;;;;;;;10.04;66.41;98871.16;685601;28;1226;-83
2023/01/09 00:48:28;;;;;;;1.50;1.40;;;;;;;10.01;66.27;98851.19;683135;29;1522;-83
2023/01/09 00:48:50;;;;;;;1.60;1.50;;;;;;;9.98;66.60;98855.53;685649;28;1235;-83
2023/01/09 00:49:12;;;;;;;1.70;1.60;;;;;;;10.01;66.45;98852.91;688460;28;1073;-83
2023/01/09 00:49:35;;;;;;;1.65;1.55;;;;;;;9.92;66.75;98845.09;688388;28;1013;-82
2023/01/09 00:50:04;;;;;;;1.70;1.60;;;;;;;9.99;66.75;98862.47;688301;28;1037;-83
2023/01/09 00:50:29;;;;;;;1.70;1.60;;;;;;;9.97;66.65;98866.81;685729;28;1226;-83
2023/01/09 00:50:50;;;;;;;1.50;1.40;;;;;;;9.97;67.09;98869.41;682818;28;1319;-83
2023/01/09 00:51:11;;;;;;;1.50;1.40;;;;;;;9.91;66.60;98851.19;680427;28;1337;-83
2023/01/09 00:51:33;;;;;;;1.50;1.40;;;;;;;9.85;66.95;98849.44;688325;28;1214;-83
2023/01/09 00:51:54;;;;;;;1.50;1.40;;;;;;;9.85;66.95;98860.72;685715;28;1005;-83
2023/01/09 00:52:15;;;;;;;1.50;1.40;;;;;;;9.85;67.06;98876.34;691087;28;1320;-84
2023/01/09 00:52:38;;;;;;;1.50;1.40;;;;;;;9.84;66.96;98860.75;691161;28;1016;-83
2023/01/09 00:53:15;;;;;;;1.58;1.48;;;;;;;9.82;66.85;98844.22;691020;28;1270;-83
2023/01/09 00:53:38;;;;;;;1.50;1.40;;;;;;;9.75;67.35;98859.00;693781;28;1064;-83
2023/01/09 00:54:00;;;;;;;1.40;1.30;;;;;;;9.79;67.23;98859.84;690725;28;1468;-82
2023/01/09 00:54:22;;;;;;;1.23;1.23;;;;;;;9.83;67.01;98861.63;685649;28;1076;-83
2023/01/09 00:54:43;;;;;;;1.48;1.38;;;;;;;9.80;67.26;98862.47;691078;28;1236;-82
2023/01/09 00:55:05;;;;;;;1.60;1.50;;;;;;;9.84;67.50;98864.19;685676;28;1165;-83
2023/01/09 00:55:26;;;;;;;1.70;1.60;;;;;;;9.76;67.12;98849.44;693930;28;767;-83
2023/01/09 00:56:01;;;;;;;1.60;1.50;;;;;;;9.82;67.36;98855.53;690648;28;1259;-82
2023/01/09 00:56:22;;;;;;;1.60;1.50;;;;;;;9.83;67.35;98862.47;691304;28;812;-82
2023/01/09 00:57:00;;;;;;;1.60;1.50;;;;;;;9.83;67.39;98851.19;690849;28;1316;-83
2023/01/09 00:57:21;;;;;;;1.60;1.50;;;;;;;9.84;67.10;98858.13;683059;29;1248;-83
2023/01/09 00:57:42;;;;;;;1.58;1.48;;;;;;;9.77;67.36;98846.81;684859;28;1162;-83
2023/01/09 00:58:03;;;;;;;1.50;1.40;;;;;;;9.76;67.45;98859.88;680296;29;1173;-83
2023/01/09 00:58:24;;;;;;;1.60;1.40;;;;;;;9.85;67.03;98854.66;682968;28;1266;-84
2023/01/09 00:58:45;;;;;;;1.60;1.40;;;;;;;9.78;67.23;98847.72;682954;29;1245;-83
2023/01/09 00:59:06;;;;;;;1.63;1.40;;;;;;;9.80;67.28;98862.47;685598;28;1038;-83
2023/01/09 00:59:27;;;;;;;1.45;1.35;;;;;;;9.88;67.03;98872.88;685815;28;898;-83
2023/01/09 00:59:47;;;;;;;1.98;1.77;;;;;;;9.80;67.02;98856.38;682844;29;1203;-83
2023/01/09 01:00:09;;;;;;;1.90;1.80;;;;;;;9.79;67.14;98855.53;682991;29;1229;-83
2023/01/09 01:00:30;;;;;;;1.92;1.73;;;;;;;9.83;67.10;98859.84;680430;29;1318;-83
2023/01/09 01:00:53;;;;;;;1.58;1.48;;;;;;;9.84;66.98;98852.94;685507;28;1203;-83
2023/01/09 01:01:14;;;;;;;1.60;1.50;;;;;;;9.80;67.04;98848.56;688407;28;1315;-83
2023/01/09 01:01:35;;;;;;;1.50;1.40;;;;;;;9.79;67.12;98858.13;685727;28;1184;-83
2023/01/09 01:01:55;;;;;;;1.67;1.58;;;;;;;9.90;67.11;98873.78;688227;28;1129;-83
2023/01/09 01:02:16;;;;;;;1.70;1.60;;;;;;;9.85;67.37;98860.72;685700;28;1182;-83
2023/01/09 01:02:36;;;;;;;1.70;1.60;;;;;;;9.85;67.10;98865.94;688243;28;1144;-82
2023/01/09 01:02:57;;;;;;;1.55;1.45;;;;;;;9.81;66.96;98858.13;685639;28;1134;-83
2023/01/09 01:03:18;;;;;;;2.03;1.58;;;;;;;9.80;67.14;98859.00;688348;28;1271;-83
2023/01/09 01:03:38;;;;;;;2.10;1.60;;;;;;;9.80;67.04;98857.25;685673;28;1113;-83
2023/01/09 01:07:37;;;;;;;2.17;1.67;;;;;;;9.87;67.30;98866.81;685546;28;1266;-83
2023/01/09 01:07:55;;;;;;;1.77;1.50;;;;;;;9.69;67.57;98867.66;685495;28;1192;-83
2023/01/09 01:08:18;;;;;;;1.70;1.60;;;;;;;9.69;67.62;98865.06;680576;29;1220;-83
2023/01/09 01:08:38;;;;;;;1.70;1.60;;;;;;;9.79;67.62;98883.31;683012;29;1217;-83
2023/01/09 01:08:59;;;;;;;1.60;1.50;;;;;;;9.69;67.82;98861.59;683112;28;1658;-83
2023/01/09 01:09:20;;;;;;;1.50;1.40;;;;;;;9.67;67.69;98863.31;688439;28;1321;-83
2023/01/09 01:09:41;;;;;;;1.50;1.40;;;;;;;9.70;67.78;98876.34;688372;28;1000;-83
2023/01/09 01:10:02;;;;;;;1.60;1.50;;;;;;;9.71;67.90;98872.91;688325;28;1208;-83
2023/01/09 01:10:24;;;;;;;1.50;1.40;;;;;;;9.70;67.94;98865.91;683104;29;1263;-83
2023/01/09 01:10:46;;;;;;;1.60;1.50;;;;;;;9.69;67.93;98875.50;688280;28;1344;-83
2023/01/09 01:11:09;;;;;;;1.60;1.50;;;;;;;9.68;67.57;98876.34;688261;28;1402;-83
2023/01/09 01:11:31;;;;;;;1.42;1.33;;;;;;;9.69;67.88;98872.00;688327;28;1149;-83
2023/01/09 01:11:52;;;;;;;1.40;1.30;;;;;;;9.69;67.68;98869.41;682862;28;1285;-83
2023/01/09 01:12:12;;;;;;;1.40;1.30;;;;;;;9.63;67.82;98865.06;688441;28;1182;-83
2023/01/09 01:12:33;;;;;;;2.67;1.40;;;;;;;9.73;67.81;98873.75;688375;28;1269;-83
2023/01/09 01:13:03;;;;;;;2.67;1.50;;;;;;;9.68;67.80;98862.44;691100;28;1306;-83
2023/01/09 01:13:24;;;;;;;1.65;1.40;;;;;;;9.69;67.76;98858.97;685650;28;1203;-82
2023/01/09 01:13:45;;;;;;;2.20;1.40;;;;;;;9.73;67.75;98884.19;688159;28;1183;-83
2023/01/09 01:14:05;;;;;;;2.70;1.30;;;;;;;9.68;67.61;98865.06;691005;28;1407;-82
2023/01/09 01:14:26;;;;;;;2.92;1.30;;;;;;;9.68;67.46;98870.25;691138;28;1191;-83
2023/01/09 01:14:47;;;;;;;2.70;1.38;;;;;;;9.69;67.33;98872.00;685519;28;1299;-83
2023/01/09 01:15:08;;;;;;;1.80;1.40;;;;;;;9.68;67.40;98862.44;683020;29;1098;-83
2023/01/09 01:15:30;;;;;;;1.50;1.40;;;;;;;9.65;67.74;98857.25;691090;28;1398;-82
2023/01/09 01:15:50;;;;;;;1.50;1.40;;;;;;;9.68;67.75;98862.44;690801;28;1323;-83
2023/01/09 01:16:12;;;;;;;1.50;1.40;;;;;;;9.64;67.41;98847.72;685736;28;969;-82
2023/01/09 01:16:33;;;;;;;1.40;1.30;;;;;;;9.68;67.49;98859.84;685633;28;1226;-83
2023/01/09 01:16:53;;;;;;;1.60;1.50;;;;;;;9.66;67.73;98872.00;690696;28;1157;-83
2023/01/09 01:17:14;;;;;;;1.60;1.50;;;;;;;9.66;67.59;98864.19;688228;28;1288;-82
2023/01/09 01:17:36;;;;;;;1.60;1.50;;;;;;;9.64;67.57;98871.16;688277;28;1448;-83
2023/01/09 01:17:58;;;;;;;1.55;1.45;;;;;;;9.60;67.71;98865.91;690971;28;976;-83
2023/01/09 01:18:18;;;;;;;1.58;1.48;;;;;;;9.61;67.83;98874.63;690876;28;1224;-83
2023/01/09 01:18:40;;;;;;;1.45;1.35;;;;;;;9.70;67.58;98890.25;685544;28;1187;-83
2023/01/09 01:19:00;;;;;;;1.30;1.20;;;;;;;9.60;67.54;98865.06;688282;28;1276;-82
2023/01/09 01:19:21;;;;;;;1.20;1.10;;;;;;;9.64;67.72;98879.81;685638;28;1113;-83
2023/01/09 01:19:41;;;;;;;1.10;1.10;;;;;;;9.59;67.55;98869.38;680379;29;1103;-83
2023/01/09 01:20:08;;;;;;;1.10;1.10;;;;;;;9.70;67.82;98876.34;685641;28;1192;-83
2023/01/09 01:20:29;;;;;;;1.20;1.20;;;;;;;9.64;67.73;98873.75;685825;28;747;-83
2023/01/09 01:20:49;;;;;;;1.20;1.20;;;;;;;9.60;67.74;98884.13;690820;28;1157;-83
2023/01/09 01:21:12;;;;;;;1.20;1.20;;;;;;;9.68;67.71;98888.50;685689;28;1138;-83
2023/01/09 01:21:32;;;;;;;1.20;1.20;;;;;;;9.55;67.54;98872.88;691014;28;1205;-83
2023/01/09 01:21:54;;;;;;;1.15;1.15;;;;;;;9.55;67.74;98872.00;685627;28;874;-83
2023/01/09 01:22:14;;;;;;;1.10;1.10;;;;;;;9.55;67.68;98878.09;685672;28;1156;-83
2023/01/09 01:22:35;;;;;;;1.00;1.00;;;;;;;9.53;67.88;98869.38;683098;28;1024;-83
2023/01/09 01:22:56;;;;;;;1.17;1.10;;;;;;;9.53;67.84;98874.59;683131;28;1002;-83
2023/01/09 01:23:16;;;;;;;1.37;1.03;;;;;;;9.48;67.74;98862.44;680377;29;1138;-83
2023/01/09 01:23:38;;;;;;;1.70;1.20;;;;;;;9.60;67.71;98881.53;685694;28;1133;-82
2023/01/09 01:23:58;;;;;;;1.63;1.20;;;;;;;9.59;67.82;98882.41;688596;28;1222;-83
2023/01/09 01:24:19;;;;;;;1.30;1.20;;;;;;;9.50;67.48;98864.19;683267;29;1181;-83
2023/01/09 01:24:40;;;;;;;1.30;1.20;;;;;;;9.49;67.68;98878.06;683223;29;1165;-83
2023/01/09 01:25:02;;;;;;;1.23;1.13;;;;;;;9.49;67.78;98872.84;685895;28;1091;-83
2023/01/09 01:25:23;;;;;;;1.70;1.20;;;;;;;9.46;67.74;98862.41;688479;28;1504;-83
2023/01/09 01:25:43;;;;;;;1.70;1.20;;;;;;;9.48;67.89;98871.13;683063;28;1535;-82
2023/01/09 01:26:12;;;;;;;1.90;1.10;;;;;;;9.55;67.86;98880.69;688471;28;1292;-83
2023/01/09 01:26:32;;;;;;;1.10;1.00;;;;;;;9.46;67.75;98868.50;683254;28;1096;-83
2023/01/09 01:26:53;;;;;;;1.70;1.00;;;;;;;9.42;67.83;98865.91;688279;28;1157;-83
2023/01/09 01:27:14;;;;;;;1.60;1.10;;;;;;;9.41;68.04;98864.16;688574;28;1914;-82
2023/01/09 01:27:34;;;;;;;1.80;1.00;;;;;;;9.39;67.89;98865.91;685881;28;1338;-82
2023/01/09 01:27:55;;;;;;;1.20;1.10;;;;;;;9.49;68.01;98864.16;686015;28;1056;-83
2023/01/09 01:28:15;;;;;;;1.30;1.20;;;;;;;9.55;67.75;98874.59;683229;29;1401;-82
2023/01/09 01:28:36;;;;;;;1.40;1.30;;;;;;;9.55;67.70;98882.41;683290;28;1309;-83
2023/01/09 01:29:00;;;;;;;1.25;1.15;;;;;;;9.50;67.42;98878.91;691156;28;1078;-82
2023/01/09 01:29:20;;;;;;;1.20;1.10;;;;;;;9.48;67.58;98865.91;694138;28;1110;-83
2023/01/09 01:29:41;;;;;;;1.10;1.00;;;;;;;9.40;67.70;98855.47;691233;28;1239;-80
2023/01/09 01:30:02;;;;;;;1.10;1.00;;;;;;;9.40;67.97;98857.22;683001;29;1155;-83
2023/01/09 01:30:23;;;;;;;1.00;1.00;;;;;;;9.42;67.97;98872.00;685851;28;1244;-83
2023/01/09 01:30:44;;;;;;;1.63;1.10;;;;;;;9.42;67.65;98864.19;693818;28;1028;-83
2023/01/09 01:31:05;;;;;;;2.50;1.10;;;;;;;9.39;67.78;98871.97;688471;28;1283;-82
2023/01/09 01:31:26;;;;;;;2.40;1.20;;;;;;;9.43;67.62;98865.03;680519;28;1111;-83
2023/01/09 01:31:46;;;;;;;1.30;1.10;;;;;;;9.37;67.75;98862.41;688302;28;1190;-82
2023/01/09 01:32:07;;;;;;;1.00;1.00;;;;;;;9.45;68.09;98876.31;688309;28;1257;-82
2023/01/09 01:32:28;;;;;;;1.00;1.00;;;;;;;9.37;67.79;98865.00;683089;28;1199;-82
2023/01/09 01:32:48;;;;;;;1.00;1.00;;;;;;;9.37;67.72;98863.28;688126;28;1150;-82
2023/01/09 01:33:10;;;;;;;1.30;1.08;;;;;;;9.49;67.78;98878.06;688349;28;1248;-82
2023/01/09 01:33:32;;;;;;;1.38;1.10;;;;;;;9.41;67.89;98874.56;688436;28;1214;-83
2023/01/09 01:33:52;;;;;;;1.35;1.10;;;;;;;9.36;67.85;98852.88;688210;28;1086;-83
2023/01/09 01:34:13;;;;;;;1.10;1.10;;;;;;;9.37;67.71;98862.41;685691;28;1103;-83
2023/01/09 01:34:33;;;;;;;0.90;0.90;;;;;;;9.31;67.96;98858.94;685728;28;1036;-82
2023/01/09 01:34:54;;;;;;;0.90;0.90;;;;;;;9.40;67.94;98875.44;682844;28;1268;-83
2023/01/09 01:35:14;;;;;;;0.90;0.90;;;;;;;9.40;67.84;98870.25;685553;28;1072;-82
2023/01/09 01:35:35;;;;;;;1.00;1.00;;;;;;;9.39;67.70;98871.09;688274;28;1255;-83
2023/01/09 01:36:05;;;;;;;1.00;1.00;;;;;;;9.34;67.94;98865.00;690928;28;1376;-82
2023/01/09 01:36:26;;;;;;;1.40;1.20;;;;;;;9.30;68.02;98862.41;688202;28;1390;-82
2023/01/09 01:36:47;;;;;;;1.40;1.10;;;;;;;9.32;67.71;98873.69;685174;28;1284;-82
2023/01/09 01:37:07;;;;;;;1.20;1.00;;;;;;;9.32;68.28;98863.28;688277;28;1267;-83
2023/01/09 01:37:29;;;;;;;1.10;1.00;;;;;;;9.37;67.65;98868.50;680277;29;1400;-83
2023/01/09 01:37:49;;;;;;;1.00;0.90;;;;;;;9.34;68.17;98865.00;685366;28;1469;-83
2023/01/09 01:38:10;;;;;;;1.08;0.90;;;;;;;9.30;67.70;98859.81;685706;28;989;-82
2023/01/09 01:38:31;;;;;;;1.30;1.10;;;;;;;9.34;68.11;98867.63;688353;28;1249;-82
2023/01/09 01:38:52;;;;;;;1.30;1.10;;;;;;;9.31;68.29;98871.06;688241;28;1157;-83
2023/01/09 01:39:13;;;;;;;1.23;1.13;;;;;;;9.25;67.84;98869.34;688405;28;1100;-83
2023/01/09 01:39:34;;;;;;;1.30;1.00;;;;;;;9.29;68.04;98859.81;691004;28;1176;-83
2023/01/09 01:39:54;;;;;;;1.40;1.10;;;;;;;9.27;68.42;98866.75;685615;28;1089;-83
2023/01/09 01:40:15;;;;;;;1.48;1.25;;;;;;;9.25;67.74;98861.53;685697;28;1091;-83
2023/01/09 01:40:37;;;;;;;1.30;1.20;;;;;;;9.23;67.80;98860.66;683085;28;1105;-83
2023/01/09 01:40:58;;;;;;;1.30;1.20;;;;;;;9.35;68.09;98874.56;685722;28;1091;-83
2023/01/09 01:41:28;;;;;;;1.10;1.00;;;;;;;9.25;67.79;98860.63;688259;28;1272;-83
2023/01/09 01:41:49;;;;;;;1.10;1.00;;;;;;;9.23;68.10;98865.88;685380;28;1087;-83
2023/01/09 01:42:12;;;;;;;1.20;1.10;;;;;;;9.31;68.09;98876.28;688395;28;965;-83
2023/01/09 01:42:33;;;;;;;1.10;1.10;;;;;;;9.24;68.15;98851.97;682873;28;1184;-83
2023/01/09 01:42:55;;;;;;;1.10;1.10;;;;;;;9.23;68.02;98860.66;685482;28;1291;-83
2023/01/09 01:43:15;;;;;;;1.30;1.10;;;;;;;9.23;67.94;98863.25;685579;28;1460;-82
2023/01/09 01:43:53;;;;;;;1.40;1.20;;;;;;;9.20;67.91;98860.63;685650;28;1196;-82
2023/01/09 01:44:51;;;;;;;1.00;1.00;;;;;;;9.30;67.97;98870.22;685720;28;981;-82
2023/01/09 01:45:24;;;;;;;1.83;1.00;;;;;;;9.19;68.03;98848.50;682341;29;1194;-82
2023/01/09 01:45:44;;;;;;;1.77;1.00;;;;;;;9.21;68.19;98857.16;688213;28;1069;-82
2023/01/09 01:46:05;;;;;;;1.00;1.00;;;;;;;9.27;67.92;98869.34;688170;28;1388;-82
2023/01/09 01:46:27;;;;;;;1.20;1.10;;;;;;;9.15;68.15;98857.16;685597;28;1145;-82
2023/01/09 01:46:48;;;;;;;1.27;1.17;;;;;;;9.19;68.02;98864.09;685270;28;1088;-82
2023/01/09 01:47:09;;;;;;;1.20;1.10;;;;;;;9.17;68.38;98850.22;682961;29;1285;-82
2023/01/09 01:48:09;;;;;;;1.00;1.00;;;;;;;9.26;68.23;98868.47;680184;29;1926;-82
2023/01/09 01:48:31;;;;;;;0.90;0.90;;;;;;;9.17;68.38;98865.84;682890;29;1432;-82
2023/01/09 01:48:58;;;;;;;0.93;0.93;;;;;;;9.12;68.38;98854.53;685449;28;1156;-83
2023/01/09 01:49:19;;;;;;;1.10;1.00;;;;;;;9.11;68.28;98855.41;686596;28;1108;-82
2023/01/09 01:49:40;;;;;;;1.10;1.00;;;;;;;9.14;68.11;98865.81;685537;28;1142;-82
2023/01/09 01:50:16;;;;;;;1.10;1.10;;;;;;;9.11;68.54;98864.09;685602;28;1105;-82
2023/01/09 01:50:43;;;;;;;1.10;1.10;;;;;;;9.12;68.48;98860.63;688195;28;1474;-82
2023/01/09 01:51:06;;;;;;;1.38;1.10;;;;;;;9.09;68.89;98883.16;690880;28;1311;-83
2023/01/09 01:51:30;;;;;;;1.50;1.05;;;;;;;9.09;68.69;98859.75;685753;28;1356;-82
2023/01/09 01:51:52;;;;;;;1.20;0.90;;;;;;;9.07;68.41;98854.53;682706;28;1398;-83
2023/01/09 01:52:13;;;;;;;0.90;0.90;;;;;;;9.07;68.55;98872.75;685599;28;1239;-83